MDT,Max TemperatureF,Mean TemperatureF,Min TemperatureF,Max Dew PointF,MeanDew PointF,Min DewpointF,Max Humidity, Mean Humidity, Min Humidity, Max Sea Level PressureIn, Mean Sea Level PressureIn, Min Sea Level PressureIn, Max VisibilityMiles, Mean VisibilityMiles, Min VisibilityMiles, Max Wind SpeedMPH, Mean Wind SpeedMPH, Max Gust SpeedMPH,PrecipitationIn, CloudCover, Events, WindDirDegrees
2013-8-1,94,82,70,61,54,45,73,43,20,30.26,30.17,30.07,10,10,10,20,9,26,0.00,2,Thunderstorm,140
2013-8-2,96,83,70,62,55,48,74,40,20,30.15,30.09,30.02,10,10,10,17,6,21,0.00,1,,264
2013-8-3,95,82,69,59,53,47,68,39,19,30.18,30.11,30.05,10,10,10,9,4,,0.00,0,,283
2013-8-4,97,84,70,56,52,48,56,34,19,30.18,30.10,30.03,10,10,10,14,6,21,0.00,2,Thunderstorm,281
2013-8-5,95,84,72,59,53,46,62,38,19,30.17,30.10,30.02,10,10,10,22,9,30,0.00,1,,271
2013-8-6,91,80,69,60,54,46,65,43,22,30.15,30.10,30.03,10,10,10,21,11,26,0.00,1,,251
2013-8-7,89,78,67,60,55,50,70,48,26,30.16,30.10,30.02,10,10,10,18,12,25,0.00,2,Rain-Thunderstorm,261
2013-8-8,92,78,63,59,47,39,76,38,15,30.14,30.07,30.00,10,10,10,16,7,22,0.00,1,,295
2013-8-9,95,80,65,52,41,35,41,25,12,30.16,30.10,30.05,10,10,10,14,7,20,0.00,2,,194
2013-8-10,82,76,70,62,54,50,75,44,33,30.31,30.22,30.16,10,10,7,16,7,23,0.01,4,Rain-Thunderstorm,104
2013-8-11,84,72,60,65,61,58,96,71,41,30.27,30.21,30.12,10,10,2,21,10,25,0.46,3,Rain-Thunderstorm,28
2013-8-12,90,79,68,64,59,52,79,52,29,30.22,30.15,30.08,10,10,10,14,5,18,0.00,1,,53
2013-8-13,89,78,68,66,60,52,88,57,28,30.23,30.15,30.08,10,10,10,17,6,24,0.10,2,Rain-Thunderstorm,358
2013-8-14,93,80,68,63,58,52,79,50,25,30.24,30.15,30.08,10,10,7,20,5,28,0.10,2,Rain-Thunderstorm,91
2013-8-15,88,78,67,64,58,50,88,57,27,30.24,30.19,30.12,10,10,10,9,6,,0.00,0,,250
2013-8-16,92,78,65,62,55,45,80,47,19,30.23,30.18,30.12,10,10,10,8,5,,0.00,0,,223
2013-8-17,95,82,68,58,51,41,69,38,15,30.22,30.15,30.06,10,10,10,8,4,,0.00,0,Thunderstorm,182
2013-8-18,94,81,68,55,49,45,59,34,19,30.21,30.14,30.07,10,10,10,12,5,17,0.00,0,,12
2013-8-19,96,81,66,63,54,46,67,44,19,30.19,30.13,30.06,10,10,5,14,4,22,0.06,2,Rain-Thunderstorm,236
2013-8-20,90,78,66,63,56,48,78,49,24,30.16,30.11,30.05,10,10,10,13,6,22,0.00,2,Rain-Thunderstorm,46
2013-8-21,92,78,63,59,51,35,79,41,16,30.16,30.12,30.06,10,10,10,12,5,17,0.00,1,,168
2013-8-22,90,76,62,52,42,34,56,29,15,30.22,30.14,30.05,10,10,10,13,6,17,0.00,2,,121
2013-8-23,89,78,67,55,52,47,62,42,23,30.18,30.11,30.02,10,10,10,20,7,30,0.00,2,Thunderstorm,123
2013-8-24,88,76,65,62,54,50,79,46,29,30.18,30.13,30.06,10,10,5,21,7,28,0.05,4,Rain,128
2013-8-25,90,77,64,64,57,48,94,54,25,30.25,30.19,30.12,10,10,10,22,9,21,0.04,2,Rain,107
2013-8-26,90,79,68,56,52,47,63,39,23,30.26,30.19,30.12,10,10,10,16,8,29,0.00,1,,120
2013-8-27,86,76,66,59,55,50,67,47,30,30.21,30.15,30.08,10,10,10,15,8,21,0.00,2,,124
2013-8-28,80,74,67,67,62,58,96,75,46,30.23,30.18,30.12,10,10,10,13,3,18,0.05,5,Rain,103
2013-8-29,79,72,64,67,65,61,98,83,53,30.30,30.24,30.21,10,9,4,8,3,,0.13,4,Rain-Thunderstorm,152
2013-8-30,90,76,62,65,61,55,96,63,32,30.25,30.18,30.10,10,10,10,9,5,,0.00,0,,270
2013-8-31,93,79,65,63,56,46,87,50,23,30.14,30.08,30.00,10,10,10,12,6,,0.00,0,,256